North Kingstown, Rhode Island
Current Conditions -  °F | °C
As of 10:53 PM on Monday 22 Dec 2014 (Local Time) from KUUU Reporting Station
Overcast Overcast  
Wind Chill:   Ceiling: 4900
Heat Index:   Visibility: 10mi
Dew Point:   Wind: 9mph
Humidity: 82%   Direction: 90°E
Pressure: 30.26"   Gusts: NA
Location:  41.6°N, 71.42°W
Report Text: KUUU 230353Z AUTO 09008KT 10SM OVC049 06/03 A3026 RMK AO2 SLP248 T00560028
Loading
Personal Weather Stations






























Interactive Weather Map New forecast layout! Learn more

10-Day Weather Forecast

Advertisements
Track Severe Weather on mobile